sensor_id;sensor_type;location;lat;lon;timestamp;pressure;altitude;pressure_sealevel;temperature;humidity
35121;BME280;21297;52.008;4.576;2023-08-24T00:01:10;51605.38;;;-143.47;100.00
35121;BME280;21297;52.008;4.576;2023-08-24T00:03:59;51739.19;;;-143.47;100.00
35121;BME280;21297;52.008;4.576;2023-08-24T00:06:45;51802.16;;;-143.47;100.00
35121;BME280;21297;52.008;4.576;2023-08-24T00:09:30;51695.91;;;-143.47;100.00
35121;BME280;21297;52.008;4.576;2023-08-24T00:12:16;51819.88;;;-143.47;100.00
35121;BME280;21297;52.008;4.576;2023-08-24T00:15:02;51880.88;;;-143.47;100.00
35121;BME280;21297;52.008;4.576;2023-08-24T00:17:48;51813.97;;;-143.47;100.00
35121;BME280;21297;52.008;4.576;2023-08-24T00:20:34;51725.44;;;-143.47;100.00
35121;BME280;21297;52.008;4.576;2023-08-24T00:23:19;51825.78;;;-143.47;100.00
35121;BME280;21297;52.008;4.576;2023-08-24T00:26:05;51969.44;;;-143.47;100.00
35121;BME280;21297;52.008;4.576;2023-08-24T00:28:50;52010.78;;;-143.47;100.00
35121;BME280;21297;52.008;4.576;2023-08-24T00:31:36;52071.78;;;-143.47;100.00
35121;BME280;21297;52.008;4.576;2023-08-24T00:34:23;51936.00;;;-143.47;100.00
35121;BME280;21297;52.008;4.576;2023-08-24T00:37:08;51857.28;;;-143.47;100.00
35121;BME280;21297;52.008;4.576;2023-08-24T00:39:54;51861.22;;;-143.47;100.00
35121;BME280;21297;52.008;4.576;2023-08-24T00:42:43;52073.75;;;-143.47;100.00
35121;BME280;21297;52.008;4.576;2023-08-24T00:45:30;51839.56;;;-143.47;100.00
35121;BME280;21297;52.008;4.576;2023-08-24T00:48:18;51991.09;;;-143.47;100.00
35121;BME280;21297;52.008;4.576;2023-08-24T00:51:04;51975.34;;;-143.47;100.00
35121;BME280;21297;52.008;4.576;2023-08-24T00:53:50;52010.78;;;-143.47;100.00
35121;BME280;21297;52.008;4.576;2023-08-24T00:56:36;51991.09;;;-143.47;100.00
35121;BME280;21297;52.008;4.576;2023-08-24T00:59:22;51884.81;;;-143.47;100.00
35121;BME280;21297;52.008;4.576;2023-08-24T01:02:08;51998.97;;;-143.47;100.00
35121;BME280;21297;52.008;4.576;2023-08-24T01:04:54;52144.59;;;-143.47;100.00
35121;BME280;21297;52.008;4.576;2023-08-24T01:07:40;52162.31;;;-143.47;100.00
35121;BME280;21297;52.008;4.576;2023-08-24T01:10:30;52124.91;;;-143.47;100.00
35121;BME280;21297;52.008;4.576;2023-08-24T01:13:26;51959.59;;;-143.47;100.00
35121;BME280;21297;52.008;4.576;2023-08-24T01:16:18;51975.34;;;-143.47;100.00
35121;BME280;21297;52.008;4.576;2023-08-24T01:19:07;52140.66;;;-143.47;100.00
35121;BME280;21297;52.008;4.576;2023-08-24T01:21:59;52024.53;;;-143.47;100.00
35121;BME280;21297;52.008;4.576;2023-08-24T01:24:53;52085.56;;;-143.47;100.00
35121;BME280;21297;52.008;4.576;2023-08-24T01:27:40;52187.88;;;-143.47;100.00
35121;BME280;21297;52.008;4.576;2023-08-24T01:30:26;52197.72;;;-143.47;100.00
35121;BME280;21297;52.008;4.576;2023-08-24T01:33:12;52058.00;;;-143.47;100.00
35121;BME280;21297;52.008;4.576;2023-08-24T01:35:59;52014.69;;;-143.47;100.00
35121;BME280;21297;52.008;4.576;2023-08-24T01:38:47;52087.53;;;-143.47;100.00
35121;BME280;21297;52.008;4.576;2023-08-24T01:41:39;51967.47;;;-143.47;100.00
35121;BME280;21297;52.008;4.576;2023-08-24T01:44:29;51987.16;;;-143.47;100.00
35121;BME280;21297;52.008;4.576;2023-08-24T01:47:17;52302.03;;;-143.47;100.00
35121;BME280;21297;52.008;4.576;2023-08-24T01:50:04;52113.09;;;-143.47;100.00
35121;BME280;21297;52.008;4.576;2023-08-24T01:52:50;52063.91;;;-143.47;100.00
35121;BME280;21297;52.008;4.576;2023-08-24T01:55:36;52211.50;;;-143.47;100.00
35121;BME280;21297;52.008;4.576;2023-08-24T01:58:22;52180.00;;;-143.47;100.00
35121;BME280;21297;52.008;4.576;2023-08-24T02:01:08;52052.09;;;-143.47;100.00
35121;BME280;21297;52.008;4.576;2023-08-24T02:03:54;52024.53;;;-143.47;100.00
35121;BME280;21297;52.008;4.576;2023-08-24T02:06:41;52097.34;;;-143.47;100.00
35121;BME280;21297;52.008;4.576;2023-08-24T02:09:26;52030.44;;;-143.47;100.00
35121;BME280;21297;52.008;4.576;2023-08-24T02:12:12;52101.28;;;-143.47;100.00
35121;BME280;21297;52.008;4.576;2023-08-24T02:14:58;52345.34;;;-143.47;100.00
35121;BME280;21297;52.008;4.576;2023-08-24T02:17:43;52097.34;;;-143.47;100.00
35121;BME280;21297;52.008;4.576;2023-08-24T02:20:30;52054.06;;;-143.47;100.00
35121;BME280;21297;52.008;4.576;2023-08-24T02:23:15;52069.81;;;-143.47;100.00
35121;BME280;21297;52.008;4.576;2023-08-24T02:26:01;52128.84;;;-143.47;100.00
35121;BME280;21297;52.008;4.576;2023-08-24T02:28:46;52016.66;;;-143.47;100.00
35121;BME280;21297;52.008;4.576;2023-08-24T02:31:32;52058.00;;;-143.47;100.00
35121;BME280;21297;52.008;4.576;2023-08-24T02:34:18;52286.28;;;-143.47;100.00
35121;BME280;21297;52.008;4.576;2023-08-24T02:37:04;52231.19;;;-143.47;100.00
35121;BME280;21297;52.008;4.576;2023-08-24T02:39:49;52311.88;;;-143.47;100.00
35121;BME280;21297;52.008;4.576;2023-08-24T02:42:35;52085.56;;;-143.47;100.00
35121;BME280;21297;52.008;4.576;2023-08-24T02:45:21;52223.31;;;-143.47;100.00
35121;BME280;21297;52.008;4.576;2023-08-24T02:48:06;52258.75;;;-143.47;100.00
35121;BME280;21297;52.008;4.576;2023-08-24T02:50:52;52172.16;;;-143.47;100.00
35121;BME280;21297;52.008;4.576;2023-08-24T02:53:38;52361.09;;;-143.47;100.00
35121;BME280;21297;52.008;4.576;2023-08-24T02:56:24;52272.50;;;-143.47;100.00
35121;BME280;21297;52.008;4.576;2023-08-24T02:59:09;52223.31;;;-143.47;100.00
35121;BME280;21297;52.008;4.576;2023-08-24T03:01:55;52239.06;;;-143.47;100.00
35121;BME280;21297;52.008;4.576;2023-08-24T03:04:41;52327.63;;;-143.47;100.00
35121;BME280;21297;52.008;4.576;2023-08-24T03:07:26;52180.00;;;-143.47;100.00
35121;BME280;21297;52.008;4.576;2023-08-24T03:10:12;52351.25;;;-143.47;100.00
35121;BME280;21297;52.008;4.576;2023-08-24T03:12:58;52307.94;;;-143.47;100.00
35121;BME280;21297;52.008;4.576;2023-08-24T03:15:44;52302.03;;;-143.47;100.00
35121;BME280;21297;52.008;4.576;2023-08-24T03:18:30;52117.03;;;-143.47;100.00
35121;BME280;21297;52.008;4.576;2023-08-24T03:21:16;52286.28;;;-143.47;100.00
35121;BME280;21297;52.008;4.576;2023-08-24T03:24:01;52158.38;;;-143.47;100.00
35121;BME280;21297;52.008;4.576;2023-08-24T03:26:49;52355.19;;;-143.47;100.00
35121;BME280;21297;52.008;4.576;2023-08-24T03:29:35;52420.13;;;-143.47;100.00
35121;BME280;21297;52.008;4.576;2023-08-24T03:32:21;52351.25;;;-143.47;100.00
35121;BME280;21297;52.008;4.576;2023-08-24T03:35:06;52126.88;;;-143.47;100.00
35121;BME280;21297;52.008;4.576;2023-08-24T03:37:52;52122.94;;;-143.47;100.00
35121;BME280;21297;52.008;4.576;2023-08-24T03:40:38;52400.44;;;-143.47;100.00
35121;BME280;21297;52.008;4.576;2023-08-24T03:43:23;52172.16;;;-143.47;100.00
35121;BME280;21297;52.008;4.576;2023-08-24T03:46:09;52325.66;;;-143.47;100.00
35121;BME280;21297;52.008;4.576;2023-08-24T03:48:55;52219.38;;;-143.47;100.00
35121;BME280;21297;52.008;4.576;2023-08-24T03:51:40;52148.53;;;-143.47;100.00
35121;BME280;21297;52.008;4.576;2023-08-24T03:54:26;52215.44;;;-143.47;100.00
35121;BME280;21297;52.008;4.576;2023-08-24T03:57:14;52083.59;;;-143.47;100.00
35121;BME280;21297;52.008;4.576;2023-08-24T03:59:59;52343.38;;;-143.47;100.00
35121;BME280;21297;52.008;4.576;2023-08-24T04:02:45;52158.38;;;-143.47;100.00
35121;BME280;21297;52.008;4.576;2023-08-24T04:05:31;52333.53;;;-143.47;100.00
35121;BME280;21297;52.008;4.576;2023-08-24T04:08:17;52262.69;;;-143.47;100.00
35121;BME280;21297;52.008;4.576;2023-08-24T04:11:03;52239.06;;;-143.47;100.00
35121;BME280;21297;52.008;4.576;2023-08-24T04:13:48;52026.50;;;-143.47;100.00
35121;BME280;21297;52.008;4.576;2023-08-24T04:16:34;52276.44;;;-143.47;100.00
35121;BME280;21297;52.008;4.576;2023-08-24T04:19:20;52231.19;;;-143.47;100.00
35121;BME280;21297;52.008;4.576;2023-08-24T04:22:05;52065.88;;;-143.47;100.00
35121;BME280;21297;52.008;4.576;2023-08-24T04:24:51;52079.66;;;-143.47;100.00
35121;BME280;21297;52.008;4.576;2023-08-24T04:27:37;52138.69;;;-143.47;100.00
35121;BME280;21297;52.008;4.576;2023-08-24T04:30:22;52136.72;;;-143.47;100.00
35121;BME280;21297;52.008;4.576;2023-08-24T04:33:08;52107.19;;;-143.47;100.00
35121;BME280;21297;52.008;4.576;2023-08-24T04:35:54;52109.16;;;-143.47;100.00
35121;BME280;21297;52.008;4.576;2023-08-24T04:38:39;52203.63;;;-143.47;100.00
35121;BME280;21297;52.008;4.576;2023-08-24T04:41:25;52217.41;;;-143.47;100.00
35121;BME280;21297;52.008;4.576;2023-08-24T04:44:10;52282.34;;;-143.47;100.00
35121;BME280;21297;52.008;4.576;2023-08-24T04:46:56;52424.06;;;-143.47;100.00
35121;BME280;21297;52.008;4.576;2023-08-24T04:49:42;52372.88;;;-143.47;100.00
35121;BME280;21297;52.008;4.576;2023-08-24T04:52:27;52345.34;;;-143.47;100.00
35121;BME280;21297;52.008;4.576;2023-08-24T04:55:13;52439.81;;;-143.47;100.00
35121;BME280;21297;52.008;4.576;2023-08-24T04:57:59;52376.81;;;-143.47;100.00
35121;BME280;21297;52.008;4.576;2023-08-24T05:00:45;52607.09;;;-143.47;100.00
35121;BME280;21297;52.008;4.576;2023-08-24T05:03:30;52424.06;;;-143.47;100.00
35121;BME280;21297;52.008;4.576;2023-08-24T05:06:16;52524.44;;;-143.47;100.00
35121;BME280;21297;52.008;4.576;2023-08-24T05:09:02;52644.50;;;-143.47;100.00
35121;BME280;21297;52.008;4.576;2023-08-24T05:11:47;52613.00;;;-143.47;100.00
35121;BME280;21297;52.008;4.576;2023-08-24T05:14:33;52691.75;;;-143.47;100.00
35121;BME280;21297;52.008;4.576;2023-08-24T05:17:20;52676.00;;;-143.47;100.00
35121;BME280;21297;52.008;4.576;2023-08-24T05:20:07;52502.78;;;-143.47;100.00
35121;BME280;21297;52.008;4.576;2023-08-24T05:22:54;52569.72;;;-143.47;100.00
35121;BME280;21297;52.008;4.576;2023-08-24T05:25:43;52666.16;;;-143.47;100.00
35121;BME280;21297;52.008;4.576;2023-08-24T05:28:29;52577.56;;;-143.47;100.00
35121;BME280;21297;52.008;4.576;2023-08-24T05:31:15;52666.16;;;-143.47;100.00
35121;BME280;21297;52.008;4.576;2023-08-24T05:34:01;52620.88;;;-143.47;100.00
35121;BME280;21297;52.008;4.576;2023-08-24T05:36:47;52754.72;;;-143.47;100.00
35121;BME280;21297;52.008;4.576;2023-08-24T05:39:32;52703.53;;;-143.47;100.00
35121;BME280;21297;52.008;4.576;2023-08-24T05:42:18;52801.97;;;-143.47;100.00
35121;BME280;21297;52.008;4.576;2023-08-24T05:45:04;52872.81;;;-143.47;100.00
35121;BME280;21297;52.008;4.576;2023-08-24T05:47:51;52977.16;;;-143.47;100.00
35121;BME280;21297;52.008;4.576;2023-08-24T05:50:37;52851.16;;;-143.47;100.00
35121;BME280;21297;52.008;4.576;2023-08-24T05:53:23;52925.97;;;-143.47;100.00
35121;BME280;21297;52.008;4.576;2023-08-24T05:56:08;52951.56;;;-143.47;100.00
35121;BME280;21297;52.008;4.576;2023-08-24T05:58:54;53085.41;;;-143.47;100.00
35121;BME280;21297;52.008;4.576;2023-08-24T06:01:41;53016.53;;;-143.47;100.00
35121;BME280;21297;52.008;4.576;2023-08-24T06:04:26;53069.66;;;-143.47;100.00
35121;BME280;21297;52.008;4.576;2023-08-24T06:07:12;53124.78;;;-143.47;100.00
35121;BME280;21297;52.008;4.576;2023-08-24T06:09:58;53112.97;;;-143.47;100.00
35121;BME280;21297;52.008;4.576;2023-08-24T06:12:43;53034.22;;;-143.47;100.00
35121;BME280;21297;52.008;4.576;2023-08-24T06:15:29;53193.69;;;-143.47;100.00
35121;BME280;21297;52.008;4.576;2023-08-24T06:18:15;52817.72;;;-143.47;100.00
35121;BME280;21297;52.008;4.576;2023-08-24T06:21:01;53323.59;;;-143.47;100.00
35121;BME280;21297;52.008;4.576;2023-08-24T06:23:47;52975.19;;;-143.47;100.00
35121;BME280;21297;52.008;4.576;2023-08-24T06:26:32;52925.97;;;-143.47;100.00
35121;BME280;21297;52.008;4.576;2023-08-24T06:29:18;53077.53;;;-143.47;100.00
35121;BME280;21297;52.008;4.576;2023-08-24T06:32:06;53124.78;;;-143.47;100.00
35121;BME280;21297;52.008;4.576;2023-08-24T06:34:52;53301.94;;;-143.47;100.00
35121;BME280;21297;52.008;4.576;2023-08-24T06:37:38;53018.50;;;-143.47;100.00
35121;BME280;21297;52.008;4.576;2023-08-24T06:40:23;53091.31;;;-143.47;100.00
35121;BME280;21297;52.008;4.576;2023-08-24T06:43:09;53097.22;;;-143.47;100.00
35121;BME280;21297;52.008;4.576;2023-08-24T06:45:55;53250.78;;;-143.47;100.00
35121;BME280;21297;52.008;4.576;2023-08-24T06:48:40;53026.34;;;-143.47;100.00
35121;BME280;21297;52.008;4.576;2023-08-24T06:51:28;53242.91;;;-143.47;100.00
35121;BME280;21297;52.008;4.576;2023-08-24T06:54:14;53451.56;;;-143.47;100.00
35121;BME280;21297;52.008;4.576;2023-08-24T06:57:01;53355.09;;;-143.47;100.00
35121;BME280;21297;52.008;4.576;2023-08-24T06:59:46;53278.34;;;-143.47;100.00
35121;BME280;21297;52.008;4.576;2023-08-24T07:02:32;53396.44;;;-143.47;100.00
35121;BME280;21297;52.008;4.576;2023-08-24T07:05:18;53447.63;;;-143.47;100.00
35121;BME280;21297;52.008;4.576;2023-08-24T07:08:04;53431.88;;;-143.47;100.00
35121;BME280;21297;52.008;4.576;2023-08-24T07:10:51;53711.44;;;-143.47;100.00
35121;BME280;21297;52.008;4.576;2023-08-24T07:13:36;53721.28;;;-143.47;100.00
35121;BME280;21297;52.008;4.576;2023-08-24T07:16:22;53672.06;;;-143.47;100.00
35121;BME280;21297;52.008;4.576;2023-08-24T07:19:08;53485.03;;;-143.47;99.69
35121;BME280;21297;52.008;4.576;2023-08-24T07:21:54;53762.63;;;-143.47;100.00
35121;BME280;21297;52.008;4.576;2023-08-24T07:24:39;53935.88;;;-143.47;97.56
35121;BME280;21297;52.008;4.576;2023-08-24T07:27:25;54016.63;;;-143.47;95.50
35121;BME280;21297;52.008;4.576;2023-08-24T07:30:11;53666.16;;;-143.47;95.30
35121;BME280;21297;52.008;4.576;2023-08-24T07:32:57;53890.59;;;-143.47;96.47
35121;BME280;21297;52.008;4.576;2023-08-24T07:35:43;54022.53;;;-143.47;92.00
35121;BME280;21297;52.008;4.576;2023-08-24T07:38:28;54282.44;;;-143.47;86.23
35121;BME280;21297;52.008;4.576;2023-08-24T07:41:14;54250.94;;;-143.47;82.61
35121;BME280;21297;52.008;4.576;2023-08-24T07:44:00;54148.53;;;-143.47;84.08
35121;BME280;21297;52.008;4.576;2023-08-24T07:46:47;54014.66;;;-143.47;80.62
35121;BME280;21297;52.008;4.576;2023-08-24T07:49:33;54097.34;;;-143.47;81.48
35121;BME280;21297;52.008;4.576;2023-08-24T07:52:18;53993.00;;;-143.47;79.29
35121;BME280;21297;52.008;4.576;2023-08-24T07:55:05;54376.94;;;-143.47;79.31
35121;BME280;21297;52.008;4.576;2023-08-24T07:57:52;54264.72;;;-143.47;78.99
35121;BME280;21297;52.008;4.576;2023-08-24T08:00:38;54308.03;;;-143.47;79.24
35121;BME280;21297;52.008;4.576;2023-08-24T08:03:24;54412.41;;;-143.47;80.91
35121;BME280;21297;52.008;4.576;2023-08-24T08:06:10;54371.03;;;-143.47;78.32
35121;BME280;21297;52.008;4.576;2023-08-24T08:08:55;54333.63;;;-143.47;76.27
35121;BME280;21297;52.008;4.576;2023-08-24T08:11:42;54215.47;;;-143.47;76.85
35121;BME280;21297;52.008;4.576;2023-08-24T08:14:28;54284.41;;;-143.47;77.88
35121;BME280;21297;52.008;4.576;2023-08-24T08:17:14;54050.09;;;-143.47;78.16
35121;BME280;21297;52.008;4.576;2023-08-24T08:19:59;54502.97;;;-143.47;78.80
35121;BME280;21297;52.008;4.576;2023-08-24T08:22:45;54493.13;;;-143.47;82.20
35121;BME280;21297;52.008;4.576;2023-08-24T08:25:30;54473.44;;;-143.47;78.69
35121;BME280;21297;52.008;4.576;2023-08-24T08:28:17;54558.13;;;-143.47;80.27
35121;BME280;21297;52.008;4.576;2023-08-24T08:31:03;54589.63;;;-143.47;78.38
35121;BME280;21297;52.008;4.576;2023-08-24T08:33:49;54400.59;;;-143.47;77.30
35121;BME280;21297;52.008;4.576;2023-08-24T08:36:34;54262.75;;;-143.47;80.99
35121;BME280;21297;52.008;4.576;2023-08-24T08:39:20;54233.22;;;-143.47;79.97
35121;BME280;21297;52.008;4.576;2023-08-24T08:42:11;54371.03;;;-143.47;79.42
35121;BME280;21297;52.008;4.576;2023-08-24T08:44:57;54178.06;;;-143.47;79.86
35121;BME280;21297;52.008;4.576;2023-08-24T08:47:45;54248.97;;;-143.47;77.59
35121;BME280;21297;52.008;4.576;2023-08-24T08:50:32;54130.81;;;-143.47;78.16
35121;BME280;21297;52.008;4.576;2023-08-24T08:53:21;54276.53;;;-143.47;78.11
35121;BME280;21297;52.008;4.576;2023-08-24T08:56:08;54412.41;;;-143.47;80.77
35121;BME280;21297;52.008;4.576;2023-08-24T08:58:55;54451.78;;;-143.47;77.92
35121;BME280;21297;52.008;4.576;2023-08-24T09:01:42;54695.97;;;-143.47;76.96
35121;BME280;21297;52.008;4.576;2023-08-24T09:04:32;54701.88;;;-143.47;79.08
35121;BME280;21297;52.008;4.576;2023-08-24T09:07:18;54999.25;;;-143.47;75.29
35121;BME280;21297;52.008;4.576;2023-08-24T09:10:04;54955.91;;;-143.47;75.50
35121;BME280;21297;52.008;4.576;2023-08-24T09:12:50;54686.13;;;-143.47;77.48
35121;BME280;21297;52.008;4.576;2023-08-24T09:15:36;55011.06;;;-143.47;73.32
35121;BME280;21297;52.008;4.576;2023-08-24T09:18:34;54778.66;;;-143.47;72.18
35121;BME280;21297;52.008;4.576;2023-08-24T09:21:20;54812.16;;;-143.47;72.67
35121;BME280;21297;52.008;4.576;2023-08-24T09:24:06;55038.63;;;-143.47;75.88
35121;BME280;21297;52.008;4.576;2023-08-24T09:26:52;54971.66;;;-143.47;77.23
35121;BME280;21297;52.008;4.576;2023-08-24T09:29:37;54916.53;;;-143.47;75.48
35121;BME280;21297;52.008;4.576;2023-08-24T09:32:32;55101.66;;;-143.47;74.75
35121;BME280;21297;52.008;4.576;2023-08-24T09:35:20;54995.31;;;-143.47;73.93
35121;BME280;21297;52.008;4.576;2023-08-24T09:38:19;54670.34;;;-143.47;75.19
35121;BME280;21297;52.008;4.576;2023-08-24T09:41:06;54652.63;;;-143.47;76.48
35121;BME280;21297;52.008;4.576;2023-08-24T09:43:51;54684.16;;;-143.47;78.00
35121;BME280;21297;52.008;4.576;2023-08-24T09:46:38;54566.00;;;-143.47;79.70
35121;BME280;21297;52.008;4.576;2023-08-24T09:49:24;54629.00;;;-143.47;81.39
35121;BME280;21297;52.008;4.576;2023-08-24T09:52:11;54753.06;;;-143.47;82.58
35121;BME280;21297;52.008;4.576;2023-08-24T09:55:01;54662.47;;;-143.47;83.33
35121;BME280;21297;52.008;4.576;2023-08-24T09:57:53;54306.06;;;-143.47;84.70
35121;BME280;21297;52.008;4.576;2023-08-24T10:00:41;54280.47;;;-143.47;85.88
35121;BME280;21297;52.008;4.576;2023-08-24T10:03:27;54510.84;;;-143.47;87.30
35121;BME280;21297;52.008;4.576;2023-08-24T10:06:14;54518.72;;;-143.47;88.91
35121;BME280;21297;52.008;4.576;2023-08-24T10:09:02;54207.59;;;-143.47;90.24
35121;BME280;21297;52.008;4.576;2023-08-24T10:11:53;54290.31;;;-143.47;90.89
35121;BME280;21297;52.008;4.576;2023-08-24T10:15:16;54223.38;;;-143.47;92.15
35121;BME280;21297;52.008;4.576;2023-08-24T10:17:58;54447.84;;;-143.47;92.51
35121;BME280;21297;52.008;4.576;2023-08-24T10:20:45;54146.56;;;-143.47;93.47
35121;BME280;21297;52.008;4.576;2023-08-24T10:23:34;54562.06;;;-143.47;93.83
35121;BME280;21297;52.008;4.576;2023-08-24T10:26:20;54477.38;;;-143.47;93.53
35121;BME280;21297;52.008;4.576;2023-08-24T10:29:06;54422.25;;;-143.47;92.30
35121;BME280;21297;52.008;4.576;2023-08-24T10:31:54;54573.88;;;-143.47;93.38
35121;BME280;21297;52.008;4.576;2023-08-24T10:34:40;54406.50;;;-143.47;94.76
35121;BME280;21297;52.008;4.576;2023-08-24T10:40:02;54896.84;;;-143.47;91.13
35121;BME280;21297;52.008;4.576;2023-08-24T10:42:49;55156.81;;;-143.47;90.77
35121;BME280;21297;52.008;4.576;2023-08-24T10:45:57;55101.66;;;-143.47;86.48
35121;BME280;21297;52.008;4.576;2023-08-24T10:51:42;55621.63;;;-143.47;83.85
35121;BME280;21297;52.008;4.576;2023-08-24T10:54:31;55399.06;;;-143.47;79.80
35121;BME280;21297;52.008;4.576;2023-08-24T10:57:26;55489.66;;;-143.47;77.69
35121;BME280;21297;52.008;4.576;2023-08-24T11:00:14;54916.53;;;-143.47;76.84
35121;BME280;21297;52.008;4.576;2023-08-24T11:03:00;54855.47;;;-143.47;80.89
35121;BME280;21297;52.008;4.576;2023-08-24T11:05:45;54932.28;;;-143.47;78.20
35121;BME280;21297;52.008;4.576;2023-08-24T11:08:48;55032.72;;;-143.47;82.96
35121;BME280;21297;52.008;4.576;2023-08-24T11:11:34;54861.38;;;-143.47;81.43
35121;BME280;21297;52.008;4.576;2023-08-24T11:14:20;54743.22;;;-143.47;80.50
35121;BME280;21297;52.008;4.576;2023-08-24T11:17:18;54825.94;;;-143.47;77.88
35121;BME280;21297;52.008;4.576;2023-08-24T11:20:04;54975.59;;;-143.47;75.17
35121;BME280;21297;52.008;4.576;2023-08-24T11:22:55;54934.25;;;-143.47;77.92
35121;BME280;21297;52.008;4.576;2023-08-24T11:25:41;55072.13;;;-143.47;79.37
35121;BME280;21297;52.008;4.576;2023-08-24T11:28:28;55085.91;;;-143.47;78.39
35121;BME280;21297;52.008;4.576;2023-08-24T11:31:13;55219.81;;;-143.47;79.30
35121;BME280;21297;52.008;4.576;2023-08-24T11:33:59;55341.94;;;-143.47;78.67
35121;BME280;21297;52.008;4.576;2023-08-24T11:36:49;55255.28;;;-143.47;75.44
35121;BME280;21297;52.008;4.576;2023-08-24T11:39:34;55271.03;;;-143.47;75.92
35121;BME280;21297;52.008;4.576;2023-08-24T11:42:20;55330.13;;;-143.47;70.35
35121;BME280;21297;52.008;4.576;2023-08-24T11:45:11;55233.63;;;-143.47;70.09
35121;BME280;21297;52.008;4.576;2023-08-24T11:47:58;55188.31;;;-143.47;72.95
35121;BME280;21297;52.008;4.576;2023-08-24T11:50:45;55190.28;;;-143.47;72.54
35121;BME280;21297;52.008;4.576;2023-08-24T11:53:31;54833.81;;;-143.47;73.22
35121;BME280;21297;52.008;4.576;2023-08-24T11:56:17;54593.56;;;-143.47;76.08
35121;BME280;21297;52.008;4.576;2023-08-24T11:59:03;54684.16;;;-143.47;78.34
35121;BME280;21297;52.008;4.576;2023-08-24T12:01:49;54567.97;;;-143.47;79.76
35121;BME280;21297;52.008;4.576;2023-08-24T12:04:41;54558.13;;;-143.47;79.54
35121;BME280;21297;52.008;4.576;2023-08-24T12:07:28;54983.50;;;-143.47;80.39
35121;BME280;21297;52.008;4.576;2023-08-24T12:10:14;55089.84;;;-143.47;80.23
35121;BME280;21297;52.008;4.576;2023-08-24T12:13:04;54609.31;;;-143.47;77.79
35121;BME280;21297;52.008;4.576;2023-08-24T12:15:52;54688.09;;;-143.47;78.81
35121;BME280;21297;52.008;4.576;2023-08-24T12:18:52;54869.25;;;-143.47;79.55
35121;BME280;21297;52.008;4.576;2023-08-24T12:21:43;54562.06;;;-143.47;79.81
35121;BME280;21297;52.008;4.576;2023-08-24T12:24:29;54989.41;;;-143.47;79.95
35121;BME280;21297;52.008;4.576;2023-08-24T12:27:22;55219.81;;;-143.47;76.46
35121;BME280;21297;52.008;4.576;2023-08-24T12:30:10;55288.75;;;-143.47;74.61
35121;BME280;21297;52.008;4.576;2023-08-24T12:32:56;55420.72;;;-143.47;73.26
35121;BME280;21297;52.008;4.576;2023-08-24T12:35:42;55265.13;;;-143.47;71.18
35121;BME280;21297;52.008;4.576;2023-08-24T12:38:27;55011.06;;;-143.47;72.30
35121;BME280;21297;52.008;4.576;2023-08-24T12:41:13;55454.22;;;-143.47;70.73
35121;BME280;21297;52.008;4.576;2023-08-24T12:43:58;55531.03;;;-143.47;69.74
35121;BME280;21297;52.008;4.576;2023-08-24T12:46:44;55745.72;;;-143.47;66.54
35121;BME280;21297;52.008;4.576;2023-08-24T12:49:30;55854.06;;;-143.47;67.10
35121;BME280;21297;52.008;4.576;2023-08-24T12:52:16;55952.56;;;-143.47;62.89
35121;BME280;21297;52.008;4.576;2023-08-24T12:55:02;56058.94;;;-143.47;65.21
35121;BME280;21297;52.008;4.576;2023-08-24T12:57:49;55952.56;;;-143.47;62.48
35121;BME280;21297;52.008;4.576;2023-08-24T13:00:35;56206.69;;;-143.47;63.96
35121;BME280;21297;52.008;4.576;2023-08-24T13:03:20;56279.59;;;-143.47;61.83
35121;BME280;21297;52.008;4.576;2023-08-24T13:06:06;56547.53;;;-143.47;61.70
35121;BME280;21297;52.008;4.576;2023-08-24T13:08:52;56590.88;;;-143.47;63.59
35121;BME280;21297;52.008;4.576;2023-08-24T13:11:38;56608.59;;;-143.47;60.11
35121;BME280;21297;52.008;4.576;2023-08-24T13:14:24;56598.75;;;-143.47;59.66
35121;BME280;21297;52.008;4.576;2023-08-24T13:17:10;56801.69;;;-143.47;58.41
35121;BME280;21297;52.008;4.576;2023-08-24T13:19:56;56545.56;;;-143.47;61.24
35121;BME280;21297;52.008;4.576;2023-08-24T13:22:41;56872.63;;;-143.47;62.01
35121;BME280;21297;52.008;4.576;2023-08-24T13:25:27;56870.66;;;-143.47;63.45
35121;BME280;21297;52.008;4.576;2023-08-24T13:28:13;56957.34;;;-143.47;60.36
35121;BME280;21297;52.008;4.576;2023-08-24T13:30:58;56835.19;;;-143.47;59.87
35121;BME280;21297;52.008;4.576;2023-08-24T13:33:45;56726.81;;;-143.47;59.81
35121;BME280;21297;52.008;4.576;2023-08-24T13:36:31;56628.31;;;-143.47;62.35
35121;BME280;21297;52.008;4.576;2023-08-24T13:39:16;56947.50;;;-143.47;60.85
35121;BME280;21297;52.008;4.576;2023-08-24T13:42:02;57116.94;;;-143.47;59.23
35121;BME280;21297;52.008;4.576;2023-08-24T13:44:48;56770.16;;;-143.47;57.69
35121;BME280;21297;52.008;4.576;2023-08-24T13:47:34;56626.31;;;-143.47;60.11
35121;BME280;21297;52.008;4.576;2023-08-24T13:50:20;56691.34;;;-143.47;59.16
35121;BME280;21297;52.008;4.576;2023-08-24T13:53:05;56888.38;;;-143.47;59.64
35121;BME280;21297;52.008;4.576;2023-08-24T13:55:51;56744.53;;;-143.47;59.19
35121;BME280;21297;52.008;4.576;2023-08-24T13:58:36;56961.28;;;-143.47;59.36
35121;BME280;21297;52.008;4.576;2023-08-24T14:01:22;56516.00;;;-143.47;59.50
35121;BME280;21297;52.008;4.576;2023-08-24T14:04:08;56421.44;;;-143.47;61.20
35121;BME280;21297;52.008;4.576;2023-08-24T14:06:54;56281.56;;;-143.47;60.55
35121;BME280;21297;52.008;4.576;2023-08-24T14:09:39;56131.84;;;-143.47;62.70
35121;BME280;21297;52.008;4.576;2023-08-24T14:12:25;55942.72;;;-143.47;62.51
35121;BME280;21297;52.008;4.576;2023-08-24T14:15:10;55988.03;;;-143.47;63.45
35121;BME280;21297;52.008;4.576;2023-08-24T14:17:56;56102.28;;;-143.47;64.56
35121;BME280;21297;52.008;4.576;2023-08-24T14:20:43;55633.44;;;-143.47;64.95